sensor_id;sensor_type;location;lat;lon;timestamp;pressure;altitude;pressure_sealevel;temperature
48854;BMP280;34673;52.808;17.856;2022-09-25T00:01:13;100170.88;;;11.49
48854;BMP280;34673;52.808;17.856;2022-09-25T00:03:41;100224.03;;;11.75
48854;BMP280;34673;52.808;17.856;2022-09-25T00:06:12;100221.41;;;11.76
48854;BMP280;34673;52.808;17.856;2022-09-25T00:08:39;100201.78;;;11.62
48854;BMP280;34673;52.808;17.856;2022-09-25T00:11:09;100206.91;;;11.65
48854;BMP280;34673;52.808;17.856;2022-09-25T00:13:37;100221.53;;;11.70
48854;BMP280;34673;52.808;17.856;2022-09-25T00:16:09;100207.72;;;11.68
48854;BMP280;34673;52.808;17.856;2022-09-25T00:18:36;100212.91;;;11.67
48854;BMP280;34673;52.808;17.856;2022-09-25T00:21:21;100205.19;;;11.64
48854;BMP280;34673;52.808;17.856;2022-09-25T00:23:49;100204.41;;;11.59
48854;BMP280;34673;52.808;17.856;2022-09-25T00:26:16;100207.94;;;11.54
48854;BMP280;34673;52.808;17.856;2022-09-25T00:28:43;100201.91;;;11.52
48854;BMP280;34673;52.808;17.856;2022-09-25T00:31:18;100206.25;;;11.52
48854;BMP280;34673;52.808;17.856;2022-09-25T00:33:46;100142.13;;;11.07
48854;BMP280;34673;52.808;17.856;2022-09-25T00:36:13;100179.78;;;11.30
48854;BMP280;34673;52.808;17.856;2022-09-25T00:38:40;100200.31;;;11.42
48854;BMP280;34673;52.808;17.856;2022-09-25T00:41:07;100194.28;;;11.42
48854;BMP280;34673;52.808;17.856;2022-09-25T00:43:40;100194.25;;;11.45
48854;BMP280;34673;52.808;17.856;2022-09-25T00:48:50;100191.69;;;11.43
48854;BMP280;34673;52.808;17.856;2022-09-25T00:51:26;100169.47;;;11.27
48854;BMP280;34673;52.808;17.856;2022-09-25T00:54:00;100190.00;;;11.39
48854;BMP280;34673;52.808;17.856;2022-09-25T00:56:36;100193.47;;;11.38
48854;BMP280;34673;52.808;17.856;2022-09-25T00:59:09;100188.31;;;11.38
48854;BMP280;34673;52.808;17.856;2022-09-25T01:01:37;100186.56;;;11.37
48854;BMP280;34673;52.808;17.856;2022-09-25T01:04:05;100191.69;;;11.43
48854;BMP280;34673;52.808;17.856;2022-09-25T01:06:34;100083.88;;;10.76
48854;BMP280;34673;52.808;17.856;2022-09-25T01:09:01;100077.06;;;10.69
48854;BMP280;34673;52.808;17.856;2022-09-25T01:11:29;100187.41;;;11.39
48854;BMP280;34673;52.808;17.856;2022-09-25T01:14:00;100157.47;;;11.20
48854;BMP280;34673;52.808;17.856;2022-09-25T01:16:40;100151.50;;;11.15
48854;BMP280;34673;52.808;17.856;2022-09-25T01:19:36;100178.09;;;11.26
48854;BMP280;34673;52.808;17.856;2022-09-25T01:22:33;100155.97;;;11.02
48854;BMP280;34673;52.808;17.856;2022-09-25T01:25:29;100186.09;;;11.09
48854;BMP280;34673;52.808;17.856;2022-09-25T01:31:01;100184.50;;;10.99
48854;BMP280;34673;52.808;17.856;2022-09-25T01:33:34;100182.84;;;10.95
48854;BMP280;34673;52.808;17.856;2022-09-25T01:36:26;100175.97;;;10.92
48854;BMP280;34673;52.808;17.856;2022-09-25T01:39:36;100173.38;;;10.92
48854;BMP280;34673;52.808;17.856;2022-09-25T01:42:12;100159.75;;;10.78
48854;BMP280;34673;52.808;17.856;2022-09-25T01:44:45;100175.28;;;10.78
48854;BMP280;34673;52.808;17.856;2022-09-25T01:47:21;100165.00;;;10.72
48854;BMP280;34673;52.808;17.856;2022-09-25T01:49:53;100173.59;;;10.74
48854;BMP280;34673;52.808;17.856;2022-09-25T01:52:26;100162.47;;;10.67
48854;BMP280;34673;52.808;17.856;2022-09-25T01:55:04;100183.09;;;10.72
48854;BMP280;34673;52.808;17.856;2022-09-25T01:57:39;100178.03;;;10.61
48854;BMP280;34673;52.808;17.856;2022-09-25T02:00:10;100179.78;;;10.60
48854;BMP280;34673;52.808;17.856;2022-09-25T02:03:07;100179.00;;;10.54
48854;BMP280;34673;52.808;17.856;2022-09-25T02:05:49;100184.22;;;10.49
48854;BMP280;34673;52.808;17.856;2022-09-25T02:08:21;100186.00;;;10.44
48854;BMP280;34673;52.808;17.856;2022-09-25T02:10:55;100184.31;;;10.40
48854;BMP280;34673;52.808;17.856;2022-09-25T02:13:39;100182.59;;;10.39
48854;BMP280;34673;52.808;17.856;2022-09-25T02:16:13;100185.16;;;10.39
48854;BMP280;34673;52.808;17.856;2022-09-25T02:18:43;100152.63;;;10.16
48854;BMP280;34673;52.808;17.856;2022-09-25T02:27:03;100158.69;;;10.12
48854;BMP280;34673;52.808;17.856;2022-09-25T02:29:31;100182.81;;;10.13
48854;BMP280;34673;52.808;17.856;2022-09-25T02:32:02;100175.91;;;10.13
48854;BMP280;34673;52.808;17.856;2022-09-25T02:34:31;100177.69;;;10.08
48854;BMP280;34673;52.808;17.856;2022-09-25T02:36:59;100127.16;;;9.75
48854;BMP280;34673;52.808;17.856;2022-09-25T02:39:28;100170.88;;;9.98
48854;BMP280;34673;52.808;17.856;2022-09-25T02:50:12;100178.66;;;9.96
48854;BMP280;34673;52.808;17.856;2022-09-25T02:55:49;100176.91;;;10.02
48854;BMP280;34673;52.808;17.856;2022-09-25T03:00:49;100164.75;;;10.08
48854;BMP280;34673;52.808;17.856;2022-09-25T03:03:19;100161.38;;;10.02
48854;BMP280;34673;52.808;17.856;2022-09-25T03:05:48;100158.88;;;9.94
48854;BMP280;34673;52.808;17.856;2022-09-25T03:08:18;100161.47;;;9.89
48854;BMP280;34673;52.808;17.856;2022-09-25T03:11:07;100158.94;;;9.85
48854;BMP280;34673;52.808;17.856;2022-09-25T03:13:35;100163.31;;;9.78
48854;BMP280;34673;52.808;17.856;2022-09-25T03:18:33;100167.63;;;9.77
48854;BMP280;34673;52.808;17.856;2022-09-25T03:21:00;100172.84;;;9.68
48854;BMP280;34673;52.808;17.856;2022-09-25T03:23:30;100164.25;;;9.66
48854;BMP280;34673;52.808;17.856;2022-09-25T03:26:00;100111.16;;;9.28
48854;BMP280;34673;52.808;17.856;2022-09-25T03:28:28;100150.63;;;9.46
48854;BMP280;34673;52.808;17.856;2022-09-25T03:31:06;100139.47;;;9.42
48854;BMP280;34673;52.808;17.856;2022-09-25T03:33:36;100176.38;;;9.58
48854;BMP280;34673;52.808;17.856;2022-09-25T03:36:07;100161.72;;;9.57
48854;BMP280;34673;52.808;17.856;2022-09-25T03:38:36;100163.47;;;9.57
48854;BMP280;34673;52.808;17.856;2022-09-25T03:41:04;100121.50;;;9.28
48854;BMP280;34673;52.808;17.856;2022-09-25T03:43:36;100169.47;;;9.57
48854;BMP280;34673;52.808;17.856;2022-09-25T03:46:05;100167.78;;;9.56
48854;BMP280;34673;52.808;17.856;2022-09-25T03:48:33;100173.78;;;9.58
48854;BMP280;34673;52.808;17.856;2022-09-25T03:51:02;100167.72;;;9.62
48854;BMP280;34673;52.808;17.856;2022-09-25T03:53:30;100166.00;;;9.64
48854;BMP280;34673;52.808;17.856;2022-09-25T03:56:00;100169.41;;;9.63
48854;BMP280;34673;52.808;17.856;2022-09-25T03:58:28;100166.00;;;9.64
48854;BMP280;34673;52.808;17.856;2022-09-25T04:00:56;100178.06;;;9.62
48854;BMP280;34673;52.808;17.856;2022-09-25T04:03:24;100176.34;;;9.61
48854;BMP280;34673;52.808;17.856;2022-09-25T04:05:56;100178.06;;;9.62
48854;BMP280;34673;52.808;17.856;2022-09-25T04:08:24;100172.06;;;9.59
48854;BMP280;34673;52.808;17.856;2022-09-25T04:10:53;100171.19;;;9.55
48854;BMP280;34673;52.808;17.856;2022-09-25T04:13:23;100164.34;;;9.54
48854;BMP280;34673;52.808;17.856;2022-09-25T04:15:50;100148.91;;;9.48
48854;BMP280;34673;52.808;17.856;2022-09-25T04:18:18;100123.16;;;9.36
48854;BMP280;34673;52.808;17.856;2022-09-25T04:20:45;100155.72;;;9.58
48854;BMP280;34673;52.808;17.856;2022-09-25T04:23:12;100159.97;;;9.62
48854;BMP280;34673;52.808;17.856;2022-09-25T04:25:40;100096.56;;;9.24
48854;BMP280;34673;52.808;17.856;2022-09-25T04:28:07;100116.28;;;9.35
48854;BMP280;34673;52.808;17.856;2022-09-25T04:30:36;100164.25;;;9.66
48854;BMP280;34673;52.808;17.856;2022-09-25T04:33:03;100158.19;;;9.69
48854;BMP280;34673;52.808;17.856;2022-09-25T04:35:49;100158.22;;;9.66
48854;BMP280;34673;52.808;17.856;2022-09-25T04:38:16;100162.47;;;9.71
48854;BMP280;34673;52.808;17.856;2022-09-25T04:40:43;100103.34;;;9.36
48854;BMP280;34673;52.808;17.856;2022-09-25T04:43:11;100156.50;;;9.66
48854;BMP280;34673;52.808;17.856;2022-09-25T04:45:39;100154.75;;;9.70
48854;BMP280;34673;52.808;17.856;2022-09-25T04:48:06;100164.19;;;9.75
48854;BMP280;34673;52.808;17.856;2022-09-25T04:50:33;100143.56;;;9.69
48854;BMP280;34673;52.808;17.856;2022-09-25T04:53:01;100148.72;;;9.72
48854;BMP280;34673;52.808;17.856;2022-09-25T04:55:29;100128.97;;;9.62
48854;BMP280;34673;52.808;17.856;2022-09-25T04:57:58;100152.88;;;9.87
48854;BMP280;34673;52.808;17.856;2022-09-25T05:00:29;100156.31;;;9.91
48854;BMP280;34673;52.808;17.856;2022-09-25T05:02:57;100154.59;;;9.91
48854;BMP280;34673;52.808;17.856;2022-09-25T05:05:24;100151.94;;;9.96
48854;BMP280;34673;52.808;17.856;2022-09-25T05:07:57;100157.91;;;10.01
48854;BMP280;34673;52.808;17.856;2022-09-25T05:10:27;100157.88;;;10.07
48854;BMP280;34673;52.808;17.856;2022-09-25T05:12:56;100160.41;;;10.12
48854;BMP280;34673;52.808;17.856;2022-09-25T05:15:24;100163.81;;;10.18
48854;BMP280;34673;52.808;17.856;2022-09-25T05:18:04;100154.34;;;10.16
48854;BMP280;34673;52.808;17.856;2022-09-25T05:20:34;100163.75;;;10.28
48854;BMP280;34673;52.808;17.856;2022-09-25T05:23:01;100162.00;;;10.27
48854;BMP280;34673;52.808;17.856;2022-09-25T05:25:30;100167.22;;;10.24
48854;BMP280;34673;52.808;17.856;2022-09-25T05:27:59;100165.47;;;10.23
48854;BMP280;34673;52.808;17.856;2022-09-25T05:30:30;100144.06;;;10.13
48854;BMP280;34673;52.808;17.856;2022-09-25T05:32:58;100163.75;;;10.28
48854;BMP280;34673;52.808;17.856;2022-09-25T05:35:30;100172.22;;;10.42
48854;BMP280;34673;52.808;17.856;2022-09-25T05:37:58;100169.53;;;10.50
48854;BMP280;34673;52.808;17.856;2022-09-25T05:40:25;100166.91;;;10.54
48854;BMP280;34673;52.808;17.856;2022-09-25T05:42:53;100151.41;;;10.54
48854;BMP280;34673;52.808;17.856;2022-09-25T05:45:24;100154.78;;;10.59
48854;BMP280;34673;52.808;17.856;2022-09-25T05:48:06;100162.47;;;10.65
48854;BMP280;34673;52.808;17.856;2022-09-25T05:50:34;100154.72;;;10.65
48854;BMP280;34673;52.808;17.856;2022-09-25T05:53:03;100156.41;;;10.67
48854;BMP280;34673;52.808;17.856;2022-09-25T05:55:31;100140.25;;;10.49
48854;BMP280;34673;52.808;17.856;2022-09-25T05:58:00;100161.59;;;10.70
48854;BMP280;34673;52.808;17.856;2022-09-25T06:00:27;100167.56;;;10.72
48854;BMP280;34673;52.808;17.856;2022-09-25T06:02:54;100171.84;;;10.76
48854;BMP280;34673;52.808;17.856;2022-09-25T06:05:22;100156.41;;;10.70
48854;BMP280;34673;52.808;17.856;2022-09-25T06:07:53;100120.44;;;10.48
48854;BMP280;34673;52.808;17.856;2022-09-25T06:10:21;100168.38;;;10.77
48854;BMP280;34673;52.808;17.856;2022-09-25T06:12:48;100171.72;;;10.85
48854;BMP280;34673;52.808;17.856;2022-09-25T06:15:16;100176.09;;;10.83
48854;BMP280;34673;52.808;17.856;2022-09-25T06:17:43;100173.38;;;10.92
48854;BMP280;34673;52.808;17.856;2022-09-25T06:20:10;100126.25;;;10.67
48854;BMP280;34673;52.808;17.856;2022-09-25T06:22:42;100113.28;;;10.69
48854;BMP280;34673;52.808;17.856;2022-09-25T06:25:10;100153.44;;;10.99
48854;BMP280;34673;52.808;17.856;2022-09-25T06:27:38;100168.03;;;11.04
48854;BMP280;34673;52.808;17.856;2022-09-25T06:30:06;100156.88;;;11.02
48854;BMP280;34673;52.808;17.856;2022-09-25T06:32:33;100152.53;;;11.01
48854;BMP280;34673;52.808;17.856;2022-09-25T06:35:00;100127.78;;;10.83
48854;BMP280;34673;52.808;17.856;2022-09-25T06:37:28;100101.28;;;10.64
48854;BMP280;34673;52.808;17.856;2022-09-25T06:39:55;100159.31;;;11.12
48854;BMP280;34673;52.808;17.856;2022-09-25T06:42:22;100151.59;;;11.07
48854;BMP280;34673;52.808;17.856;2022-09-25T06:44:49;100170.41;;;11.21
48854;BMP280;34673;52.808;17.856;2022-09-25T06:47:17;100121.53;;;10.98
48854;BMP280;34673;52.808;17.856;2022-09-25T06:49:50;100136.97;;;11.07
48854;BMP280;34673;52.808;17.856;2022-09-25T06:52:18;100172.88;;;11.29
48854;BMP280;34673;52.808;17.856;2022-09-25T06:54:46;100173.63;;;11.37
48854;BMP280;34673;52.808;17.856;2022-09-25T06:57:13;100164.06;;;11.42
48854;BMP280;34673;52.808;17.856;2022-09-25T06:59:40;100168.34;;;11.45
48854;BMP280;34673;52.808;17.856;2022-09-25T07:02:08;100165.63;;;11.52
48854;BMP280;34673;52.808;17.856;2022-09-25T07:04:54;100167.28;;;11.60
48854;BMP280;34673;52.808;17.856;2022-09-25T07:07:21;100163.66;;;11.70
48854;BMP280;34673;52.808;17.856;2022-09-25T07:09:50;100156.69;;;11.72
48854;BMP280;34673;52.808;17.856;2022-09-25T07:12:17;100150.56;;;11.79
48854;BMP280;34673;52.808;17.856;2022-09-25T07:14:44;100145.22;;;11.88
48854;BMP280;34673;52.808;17.856;2022-09-25T07:17:13;100169.16;;;12.04
48854;BMP280;34673;52.808;17.856;2022-09-25T07:19:40;100166.50;;;12.09
48854;BMP280;34673;52.808;17.856;2022-09-25T07:22:07;100163.00;;;12.10
48854;BMP280;34673;52.808;17.856;2022-09-25T07:24:36;100150.94;;;12.09
48854;BMP280;34673;52.808;17.856;2022-09-25T07:27:05;100093.38;;;11.90
48854;BMP280;34673;52.808;17.856;2022-09-25T07:29:32;100155.69;;;12.33
48854;BMP280;34673;52.808;17.856;2022-09-25T07:32:01;100163.28;;;12.44
48854;BMP280;34673;52.808;17.856;2022-09-25T07:34:30;100158.81;;;12.51
48854;BMP280;34673;52.808;17.856;2022-09-25T07:37:00;100135.59;;;12.43
48854;BMP280;34673;52.808;17.856;2022-09-25T07:39:27;100138.97;;;12.48
48854;BMP280;34673;52.808;17.856;2022-09-25T07:41:55;100144.91;;;12.55
48854;BMP280;34673;52.808;17.856;2022-09-25T07:44:23;100136.28;;;12.53
48854;BMP280;34673;52.808;17.856;2022-09-25T07:46:57;100129.56;;;12.42
48854;BMP280;34673;52.808;17.856;2022-09-25T07:49:25;100172.97;;;12.78
48854;BMP280;34673;52.808;17.856;2022-09-25T07:51:53;100156.75;;;12.68
48854;BMP280;34673;52.808;17.856;2022-09-25T07:54:20;100154.94;;;12.73
48854;BMP280;34673;52.808;17.856;2022-09-25T07:56:47;100161.59;;;12.86
48854;BMP280;34673;52.808;17.856;2022-09-25T07:59:15;100163.22;;;12.91
48854;BMP280;34673;52.808;17.856;2022-09-25T08:01:42;100166.56;;;12.96
48854;BMP280;34673;52.808;17.856;2022-09-25T08:04:16;100168.28;;;12.97
48854;BMP280;34673;52.808;17.856;2022-09-25T08:06:44;100089.59;;;12.53
48854;BMP280;34673;52.808;17.856;2022-09-25T08:09:11;100168.34;;;12.94
48854;BMP280;34673;52.808;17.856;2022-09-25T08:11:38;100154.53;;;12.92
48854;BMP280;34673;52.808;17.856;2022-09-25T08:14:05;100154.44;;;12.98
48854;BMP280;34673;52.808;17.856;2022-09-25T08:16:33;100144.09;;;12.95
48854;BMP280;34673;52.808;17.856;2022-09-25T08:19:13;100146.50;;;13.02
48854;BMP280;34673;52.808;17.856;2022-09-25T08:21:43;100142.06;;;13.07
48854;BMP280;34673;52.808;17.856;2022-09-25T08:24:10;100141.06;;;13.15
48854;BMP280;34673;52.808;17.856;2022-09-25T08:26:38;100133.91;;;13.26
48854;BMP280;34673;52.808;17.856;2022-09-25T08:29:06;100132.66;;;13.44
48854;BMP280;34673;52.808;17.856;2022-09-25T08:31:35;100140.38;;;13.83
48854;BMP280;34673;52.808;17.856;2022-09-25T08:34:02;100143.16;;;14.09
48854;BMP280;34673;52.808;17.856;2022-09-25T08:36:49;100129.53;;;14.32
48854;BMP280;34673;52.808;17.856;2022-09-25T08:39:17;100131.47;;;14.58
48854;BMP280;34673;52.808;17.856;2022-09-25T08:44:35;100122.41;;;14.72
48854;BMP280;34673;52.808;17.856;2022-09-25T08:47:19;100119.00;;;14.70
48854;BMP280;34673;52.808;17.856;2022-09-25T08:50:13;100119.09;;;14.67
48854;BMP280;34673;52.808;17.856;2022-09-25T08:52:43;100107.22;;;14.56
48854;BMP280;34673;52.808;17.856;2022-09-25T08:55:27;100113.97;;;14.63
48854;BMP280;34673;52.808;17.856;2022-09-25T08:58:22;100112.16;;;14.66
48854;BMP280;34673;52.808;17.856;2022-09-25T09:00:56;100089.28;;;14.46
48854;BMP280;34673;52.808;17.856;2022-09-25T09:03:26;100118.38;;;14.60
48854;BMP280;34673;52.808;17.856;2022-09-25T09:06:00;100121.06;;;14.58
48854;BMP280;34673;52.808;17.856;2022-09-25T09:08:30;100115.94;;;14.55
48854;BMP280;34673;52.808;17.856;2022-09-25T09:11:03;100113.38;;;14.54
48854;BMP280;34673;52.808;17.856;2022-09-25T09:13:48;100112.66;;;14.47
48854;BMP280;34673;52.808;17.856;2022-09-25T09:18:54;100102.28;;;14.46
48854;BMP280;34673;52.808;17.856;2022-09-25T09:21:40;100108.50;;;14.41
48854;BMP280;34673;52.808;17.856;2022-09-25T09:24:16;100107.56;;;14.44
48854;BMP280;34673;52.808;17.856;2022-09-25T09:29:51;100109.25;;;14.45
48854;BMP280;34673;52.808;17.856;2022-09-25T09:46:32;100098.25;;;14.67
48854;BMP280;34673;52.808;17.856;2022-09-25T09:49:36;100091.31;;;14.66
48854;BMP280;34673;52.808;17.856;2022-09-25T09:54:39;100098.44;;;14.60
48854;BMP280;34673;52.808;17.856;2022-09-25T09:57:20;100091.59;;;14.56
48854;BMP280;34673;52.808;17.856;2022-09-25T10:00:01;100097.81;;;14.52
48854;BMP280;34673;52.808;17.856;2022-09-25T10:02:39;100096.91;;;14.53
48854;BMP280;34673;52.808;17.856;2022-09-25T10:05:27;100095.19;;;14.51
48854;BMP280;34673;52.808;17.856;2022-09-25T10:07:56;100091.75;;;14.50
48854;BMP280;34673;52.808;17.856;2022-09-25T10:12:59;100094.34;;;14.50
48854;BMP280;34673;52.808;17.856;2022-09-25T10:15:39;100097.06;;;14.47
48854;BMP280;34673;52.808;17.856;2022-09-25T10:18:08;100081.53;;;14.44
48854;BMP280;34673;52.808;17.856;2022-09-25T10:20:59;100078.00;;;14.45
48854;BMP280;34673;52.808;17.856;2022-09-25T10:26:50;100079.81;;;14.43
48854;BMP280;34673;52.808;17.856;2022-09-25T10:31:57;100078.94;;;14.43
48854;BMP280;34673;52.808;17.856;2022-09-25T10:34:24;100078.03;;;14.44
48854;BMP280;34673;52.808;17.856;2022-09-25T10:36:55;100077.16;;;14.45
48854;BMP280;34673;52.808;17.856;2022-09-25T10:39:35;100078.84;;;14.46
48854;BMP280;34673;52.808;17.856;2022-09-25T10:42:34;100077.16;;;14.45
48854;BMP280;34673;52.808;17.856;2022-09-25T10:47:49;100069.22;;;14.49
48854;BMP280;34673;52.808;17.856;2022-09-25T10:50:35;100062.31;;;14.48
48854;BMP280;34673;52.808;17.856;2022-09-25T10:53:03;100067.41;;;14.51
48854;BMP280;34673;52.808;17.856;2022-09-25T10:55:42;100062.22;;;14.51
48854;BMP280;34673;52.808;17.856;2022-09-25T10:58:18;100067.50;;;14.48
48854;BMP280;34673;52.808;17.856;2022-09-25T11:03:23;100061.38;;;14.51
48854;BMP280;34673;52.808;17.856;2022-09-25T11:05:56;100039.06;;;14.42
48854;BMP280;34673;52.808;17.856;2022-09-25T11:08:28;100051.75;;;14.54
48854;BMP280;34673;52.808;17.856;2022-09-25T11:10:59;100050.88;;;14.55
48854;BMP280;34673;52.808;17.856;2022-09-25T11:13:30;100051.66;;;14.57
48854;BMP280;34673;52.808;17.856;2022-09-25T11:16:05;100048.16;;;14.58
48854;BMP280;34673;52.808;17.856;2022-09-25T11:18:50;100042.97;;;14.58
48854;BMP280;34673;52.808;17.856;2022-09-25T11:21:25;100042.97;;;14.58
48854;BMP280;34673;52.808;17.856;2022-09-25T11:24:17;100048.16;;;14.58
48854;BMP280;34673;52.808;17.856;2022-09-25T11:30:03;100033.50;;;14.56
48854;BMP280;34673;52.808;17.856;2022-09-25T11:38:47;100034.06;;;14.66
48854;BMP280;34673;52.808;17.856;2022-09-25T11:41:41;100040.88;;;14.70
48854;BMP280;34673;52.808;17.856;2022-09-25T11:49:33;100032.00;;;14.77
48854;BMP280;34673;52.808;17.856;2022-09-25T12:02:58;100015.50;;;15.04
48854;BMP280;34673;52.808;17.856;2022-09-25T12:22:08;99978.47;;;15.73
48854;BMP280;34673;52.808;17.856;2022-09-25T12:30:20;99983.84;;;16.17
48854;BMP280;34673;52.808;17.856;2022-09-25T12:33:01;99976.59;;;16.25
48854;BMP280;34673;52.808;17.856;2022-09-25T12:35:36;99967.63;;;16.32
48854;BMP280;34673;52.808;17.856;2022-09-25T12:41:01;99964.34;;;16.27
48854;BMP280;34673;52.808;17.856;2022-09-25T12:43:49;99973.28;;;16.20
48854;BMP280;34673;52.808;17.856;2022-09-25T12:49:12;99964.97;;;16.10
48854;BMP280;34673;52.808;17.856;2022-09-25T12:51:48;99960.56;;;16.12
48854;BMP280;34673;52.808;17.856;2022-09-25T12:57:34;99969.78;;;16.21
48854;BMP280;34673;52.808;17.856;2022-09-25T13:00:21;99954.94;;;16.23
48854;BMP280;34673;52.808;17.856;2022-09-25T13:05:49;99955.38;;;16.34
48854;BMP280;34673;52.808;17.856;2022-09-25T13:08:24;99954.31;;;16.38
48854;BMP280;34673;52.808;17.856;2022-09-25T13:11:01;99956.81;;;16.42
48854;BMP280;34673;52.808;17.856;2022-09-25T13:13:36;99955.13;;;16.40
48854;BMP280;34673;52.808;17.856;2022-09-25T13:16:05;99945.59;;;16.39
48854;BMP280;34673;52.808;17.856;2022-09-25T13:18:34;99955.25;;;16.37
48854;BMP280;34673;52.808;17.856;2022-09-25T13:23:36;99947.34;;;16.39
48854;BMP280;34673;52.808;17.856;2022-09-25T13:26:12;99946.50;;;16.38
48854;BMP280;34673;52.808;17.856;2022-09-25T13:29:04;99944.81;;;16.37
48854;BMP280;34673;52.808;17.856;2022-09-25T13:31:33;99948.22;;;16.39
48854;BMP280;34673;52.808;17.856;2022-09-25T13:34:06;99943.00;;;16.39
48854;BMP280;34673;52.808;17.856;2022-09-25T13:36:52;99944.00;;;16.35
48854;BMP280;34673;52.808;17.856;2022-09-25T13:44:50;99936.31;;;16.32
48854;BMP280;34673;52.808;17.856;2022-09-25T14:00:22;99928.03;;;16.21
48854;BMP280;34673;52.808;17.856;2022-09-25T14:02:49;99933.25;;;16.21
48854;BMP280;34673;52.808;17.856;2022-09-25T14:05:19;99923.81;;;16.17
48854;BMP280;34673;52.808;17.856;2022-09-25T14:07:50;99920.63;;;16.10
48854;BMP280;34673;52.808;17.856;2022-09-25T14:10:22;99909.53;;;16.04
48854;BMP280;34673;52.808;17.856;2022-09-25T14:12:49;99912.16;;;16.04
48854;BMP280;34673;52.808;17.856;2022-09-25T14:15:37;99916.59;;;16.02
48854;BMP280;34673;52.808;17.856;2022-09-25T14:18:12;99915.72;;;16.01
48854;BMP280;34673;52.808;17.856;2022-09-25T14:20:48;99916.69;;;15.99
48854;BMP280;34673;52.808;17.856;2022-09-25T14:26:05;99908.84;;;15.99
48854;BMP280;34673;52.808;17.856;2022-09-25T14:28:42;99911.47;;;15.99
48854;BMP280;34673;52.808;17.856;2022-09-25T14:31:24;99909.91;;;15.94
48854;BMP280;34673;52.808;17.856;2022-09-25T14:40:01;99905.13;;;15.82
48854;BMP280;34673;52.808;17.856;2022-09-25T14:42:43;99913.84;;;15.81
48854;BMP280;34673;52.808;17.856;2022-09-25T14:48:24;99906.97;;;15.80
48854;BMP280;34673;52.808;17.856;2022-09-25T14:50:59;99900.03;;;15.79
48854;BMP280;34673;52.808;17.856;2022-09-25T14:53:31;99898.34;;;15.78
48854;BMP280;34673;52.808;17.856;2022-09-25T14:55:59;99905.34;;;15.76
48854;BMP280;34673;52.808;17.856;2022-09-25T14:58:31;99887.28;;;15.71
48854;BMP280;34673;52.808;17.856;2022-09-25T15:01:09;99886.50;;;15.68
48854;BMP280;34673;52.808;17.856;2022-09-25T15:03:41;99896.06;;;15.69
48854;BMP280;34673;52.808;17.856;2022-09-25T15:06:22;99891.78;;;15.66
48854;BMP280;34673;52.808;17.856;2022-09-25T15:08:51;99888.41;;;15.63
48854;BMP280;34673;52.808;17.856;2022-09-25T15:11:19;99874.69;;;15.58
48854;BMP280;34673;52.808;17.856;2022-09-25T15:13:47;99891.94;;;15.62
48854;BMP280;34673;52.808;17.856;2022-09-25T15:16:22;99889.44;;;15.59
48854;BMP280;34673;52.808;17.856;2022-09-25T15:19:21;99879.13;;;15.56
48854;BMP280;34673;52.808;17.856;2022-09-25T15:21:51;99882.72;;;15.53
48854;BMP280;34673;52.808;17.856;2022-09-25T15:24:23;99877.59;;;15.50
48854;BMP280;34673;52.808;17.856;2022-09-25T15:26:59;99880.38;;;15.45
48854;BMP280;34673;52.808;17.856;2022-09-25T15:29:36;99883.00;;;15.44
48854;BMP280;34673;52.808;17.856;2022-09-25T15:32:04;99873.63;;;15.40
48854;BMP280;34673;52.808;17.856;2022-09-25T15:34:32;99875.41;;;15.38
48854;BMP280;34673;52.808;17.856;2022-09-25T15:37:15;99873.88;;;15.32
48854;BMP280;34673;52.808;17.856;2022-09-25T15:39:43;99872.19;;;15.31
48854;BMP280;34673;52.808;17.856;2022-09-25T15:42:12;99872.38;;;15.25
48854;BMP280;34673;52.808;17.856;2022-09-25T15:44:40;99874.16;;;15.24
48854;BMP280;34673;52.808;17.856;2022-09-25T15:50:01;99874.63;;;15.11
48854;BMP280;34673;52.808;17.856;2022-09-25T15:52:30;99857.59;;;15.00
48854;BMP280;34673;52.808;17.856;2022-09-25T15:55:04;99871.44;;;15.02
48854;BMP280;34673;52.808;17.856;2022-09-25T15:57:32;99870.75;;;14.97
48854;BMP280;34673;52.808;17.856;2022-09-25T16:00:05;99867.50;;;14.91
48854;BMP280;34673;52.808;17.856;2022-09-25T16:03:25;99861.75;;;14.81
48854;BMP280;34673;52.808;17.856;2022-09-25T16:06:15;99858.53;;;14.73
48854;BMP280;34673;52.808;17.856;2022-09-25T16:08:43;99868.34;;;14.65
48854;BMP280;34673;52.808;17.856;2022-09-25T16:11:20;99866.84;;;14.57
48854;BMP280;34673;52.808;17.856;2022-09-25T16:13:51;99869.63;;;14.53
48854;BMP280;34673;52.808;17.856;2022-09-25T16:16:20;99870.56;;;14.49
48854;BMP280;34673;52.808;17.856;2022-09-25T16:18:49;99866.41;;;14.43
48854;BMP280;34673;52.808;17.856;2022-09-25T16:23:52;99865.19;;;14.27
48854;BMP280;34673;52.808;17.856;2022-09-25T16:26:24;99865.59;;;14.14
48854;BMP280;34673;52.808;17.856;2022-09-25T16:29:00;99856.13;;;14.12
48854;BMP280;34673;52.808;17.856;2022-09-25T16:31:29;99865.84;;;14.05
48854;BMP280;34673;52.808;17.856;2022-09-25T16:33:57;99855.63;;;13.99
48854;BMP280;34673;52.808;17.856;2022-09-25T16:36:27;99861.13;;;13.90
48854;BMP280;34673;52.808;17.856;2022-09-25T16:41:37;99852.84;;;13.75
48854;BMP280;34673;52.808;17.856;2022-09-25T16:44:19;99842.81;;;13.63
48854;BMP280;34673;52.808;17.856;2022-09-25T16:49:18;99848.44;;;13.48
48854;BMP280;34673;52.808;17.856;2022-09-25T16:51:49;99855.44;;;13.46
48854;BMP280;34673;52.808;17.856;2022-09-25T16:54:19;99843.66;;;13.33
48854;BMP280;34673;52.808;17.856;2022-09-25T16:56:47;99846.34;;;13.29
48854;BMP280;34673;52.808;17.856;2022-09-25T16:59:17;99845.56;;;13.27
48854;BMP280;34673;52.808;17.856;2022-09-25T17:01:45;99837.94;;;13.20
48854;BMP280;34673;52.808;17.856;2022-09-25T17:04:14;99841.50;;;13.16
48854;BMP280;34673;52.808;17.856;2022-09-25T17:06:41;99836.47;;;13.09
48854;BMP280;34673;52.808;17.856;2022-09-25T17:09:14;99842.59;;;13.07